sensor_id;sensor_type;location;lat;lon;timestamp;temperature;humidity
46458;DHT22;32155;54.076;12.092;2023-06-26T00:00:05;20.70;99.90
46458;DHT22;32155;54.076;12.092;2023-06-26T00:02:32;20.70;99.90
46458;DHT22;32155;54.076;12.092;2023-06-26T00:05:00;20.60;99.90
46458;DHT22;32155;54.076;12.092;2023-06-26T00:07:28;20.60;99.90
46458;DHT22;32155;54.076;12.092;2023-06-26T00:09:59;20.60;99.90
46458;DHT22;32155;54.076;12.092;2023-06-26T00:12:25;20.40;99.90
46458;DHT22;32155;54.076;12.092;2023-06-26T00:14:50;20.40;99.90
46458;DHT22;32155;54.076;12.092;2023-06-26T00:17:18;20.50;99.90
46458;DHT22;32155;54.076;12.092;2023-06-26T00:19:44;20.50;99.90
46458;DHT22;32155;54.076;12.092;2023-06-26T00:22:09;20.40;99.90
46458;DHT22;32155;54.076;12.092;2023-06-26T00:24:37;20.40;99.90
46458;DHT22;32155;54.076;12.092;2023-06-26T00:27:03;20.30;99.90
46458;DHT22;32155;54.076;12.092;2023-06-26T00:29:28;20.20;99.90
46458;DHT22;32155;54.076;12.092;2023-06-26T00:31:54;20.20;99.90
46458;DHT22;32155;54.076;12.092;2023-06-26T00:34:22;20.20;99.90
46458;DHT22;32155;54.076;12.092;2023-06-26T00:36:47;20.20;99.90
46458;DHT22;32155;54.076;12.092;2023-06-26T00:39:13;20.30;99.90
46458;DHT22;32155;54.076;12.092;2023-06-26T00:41:39;20.30;99.90
46458;DHT22;32155;54.076;12.092;2023-06-26T00:44:05;20.30;99.90
46458;DHT22;32155;54.076;12.092;2023-06-26T00:46:30;20.30;99.90
46458;DHT22;32155;54.076;12.092;2023-06-26T00:49:01;20.30;99.90
46458;DHT22;32155;54.076;12.092;2023-06-26T00:51:30;20.30;99.90
46458;DHT22;32155;54.076;12.092;2023-06-26T00:53:58;20.30;99.90
46458;DHT22;32155;54.076;12.092;2023-06-26T00:56:24;20.40;99.90
46458;DHT22;32155;54.076;12.092;2023-06-26T00:58:49;20.40;99.90
46458;DHT22;32155;54.076;12.092;2023-06-26T01:01:17;20.20;99.90
46458;DHT22;32155;54.076;12.092;2023-06-26T01:03:50;20.20;99.90
46458;DHT22;32155;54.076;12.092;2023-06-26T01:06:20;20.10;99.90
46458;DHT22;32155;54.076;12.092;2023-06-26T01:08:45;20.20;99.90
46458;DHT22;32155;54.076;12.092;2023-06-26T01:11:12;20.30;99.90
46458;DHT22;32155;54.076;12.092;2023-06-26T01:13:38;20.20;99.90
46458;DHT22;32155;54.076;12.092;2023-06-26T01:16:04;20.20;99.90
46458;DHT22;32155;54.076;12.092;2023-06-26T01:18:30;20.20;99.90
46458;DHT22;32155;54.076;12.092;2023-06-26T01:20:59;20.10;99.90
46458;DHT22;32155;54.076;12.092;2023-06-26T01:28:35;20.00;99.90
46458;DHT22;32155;54.076;12.092;2023-06-26T01:31:03;20.20;99.90
46458;DHT22;32155;54.076;12.092;2023-06-26T01:33:29;20.20;99.90
46458;DHT22;32155;54.076;12.092;2023-06-26T01:35:55;20.20;99.90
46458;DHT22;32155;54.076;12.092;2023-06-26T01:38:24;20.10;99.90
46458;DHT22;32155;54.076;12.092;2023-06-26T01:40:51;20.00;99.90
46458;DHT22;32155;54.076;12.092;2023-06-26T01:45:50;20.00;99.90
46458;DHT22;32155;54.076;12.092;2023-06-26T01:48:16;20.00;99.90
46458;DHT22;32155;54.076;12.092;2023-06-26T01:50:46;19.90;99.90
46458;DHT22;32155;54.076;12.092;2023-06-26T01:53:15;20.00;99.90
46458;DHT22;32155;54.076;12.092;2023-06-26T01:56:04;20.00;99.90
46458;DHT22;32155;54.076;12.092;2023-06-26T01:58:31;19.90;99.90
46458;DHT22;32155;54.076;12.092;2023-06-26T02:00:57;19.90;99.90
46458;DHT22;32155;54.076;12.092;2023-06-26T02:03:22;19.90;99.90
46458;DHT22;32155;54.076;12.092;2023-06-26T02:05:50;19.90;99.90
46458;DHT22;32155;54.076;12.092;2023-06-26T02:08:16;19.90;99.90
46458;DHT22;32155;54.076;12.092;2023-06-26T02:10:44;19.80;99.90
46458;DHT22;32155;54.076;12.092;2023-06-26T02:13:09;19.80;99.90
46458;DHT22;32155;54.076;12.092;2023-06-26T02:15:35;19.80;99.90
46458;DHT22;32155;54.076;12.092;2023-06-26T02:18:00;19.80;99.90
46458;DHT22;32155;54.076;12.092;2023-06-26T02:20:28;19.80;99.90
46458;DHT22;32155;54.076;12.092;2023-06-26T02:22:54;19.70;99.90
46458;DHT22;32155;54.076;12.092;2023-06-26T02:25:20;19.70;99.90
46458;DHT22;32155;54.076;12.092;2023-06-26T02:27:45;19.60;99.90
46458;DHT22;32155;54.076;12.092;2023-06-26T02:30:11;19.60;99.90
46458;DHT22;32155;54.076;12.092;2023-06-26T02:32:36;19.60;99.90
46458;DHT22;32155;54.076;12.092;2023-06-26T02:35:04;19.60;99.90
46458;DHT22;32155;54.076;12.092;2023-06-26T02:37:30;19.50;99.90
46458;DHT22;32155;54.076;12.092;2023-06-26T02:39:55;19.50;99.90
46458;DHT22;32155;54.076;12.092;2023-06-26T02:42:21;19.60;99.90
46458;DHT22;32155;54.076;12.092;2023-06-26T02:44:46;19.60;99.90
46458;DHT22;32155;54.076;12.092;2023-06-26T02:47:12;19.50;99.90
46458;DHT22;32155;54.076;12.092;2023-06-26T02:49:37;19.50;99.90
46458;DHT22;32155;54.076;12.092;2023-06-26T02:52:05;19.60;99.90
46458;DHT22;32155;54.076;12.092;2023-06-26T02:54:30;19.50;99.90
46458;DHT22;32155;54.076;12.092;2023-06-26T02:56:56;19.50;99.90
46458;DHT22;32155;54.076;12.092;2023-06-26T02:59:24;19.70;99.90
46458;DHT22;32155;54.076;12.092;2023-06-26T03:01:50;19.60;99.90
46458;DHT22;32155;54.076;12.092;2023-06-26T03:04:15;19.70;99.90
46458;DHT22;32155;54.076;12.092;2023-06-26T03:06:44;19.50;99.90
46458;DHT22;32155;54.076;12.092;2023-06-26T03:09:12;19.50;99.90
46458;DHT22;32155;54.076;12.092;2023-06-26T03:11:38;19.50;99.90
46458;DHT22;32155;54.076;12.092;2023-06-26T03:14:03;19.50;99.90
46458;DHT22;32155;54.076;12.092;2023-06-26T03:16:31;19.50;99.90
46458;DHT22;32155;54.076;12.092;2023-06-26T03:18:57;19.40;99.90
46458;DHT22;32155;54.076;12.092;2023-06-26T03:21:22;19.50;99.90
46458;DHT22;32155;54.076;12.092;2023-06-26T03:23:48;19.40;99.90
46458;DHT22;32155;54.076;12.092;2023-06-26T03:26:13;19.40;99.90
46458;DHT22;32155;54.076;12.092;2023-06-26T03:28:40;19.40;99.90
46458;DHT22;32155;54.076;12.092;2023-06-26T03:31:07;19.40;99.90
46458;DHT22;32155;54.076;12.092;2023-06-26T03:33:36;19.40;99.90
46458;DHT22;32155;54.076;12.092;2023-06-26T03:36:02;19.50;99.90
46458;DHT22;32155;54.076;12.092;2023-06-26T03:38:31;19.50;99.90
46458;DHT22;32155;54.076;12.092;2023-06-26T03:40:56;19.50;99.90
46458;DHT22;32155;54.076;12.092;2023-06-26T03:43:22;19.50;99.90
46458;DHT22;32155;54.076;12.092;2023-06-26T03:45:47;19.60;99.90
46458;DHT22;32155;54.076;12.092;2023-06-26T03:48:13;19.60;99.90
46458;DHT22;32155;54.076;12.092;2023-06-26T03:50:41;19.60;99.90
46458;DHT22;32155;54.076;12.092;2023-06-26T03:53:06;19.60;99.90
46458;DHT22;32155;54.076;12.092;2023-06-26T03:55:32;19.60;99.90
46458;DHT22;32155;54.076;12.092;2023-06-26T03:57:57;19.60;99.90
46458;DHT22;32155;54.076;12.092;2023-06-26T04:00:23;19.60;99.90
46458;DHT22;32155;54.076;12.092;2023-06-26T04:02:48;19.60;99.90
46458;DHT22;32155;54.076;12.092;2023-06-26T04:05:16;19.70;99.90
46458;DHT22;32155;54.076;12.092;2023-06-26T04:07:45;19.80;99.90
46458;DHT22;32155;54.076;12.092;2023-06-26T04:10:10;19.80;99.90
46458;DHT22;32155;54.076;12.092;2023-06-26T04:12:36;19.80;99.90
46458;DHT22;32155;54.076;12.092;2023-06-26T04:15:01;19.90;99.90
46458;DHT22;32155;54.076;12.092;2023-06-26T04:17:27;20.00;99.90
46458;DHT22;32155;54.076;12.092;2023-06-26T04:19:53;20.00;99.90
46458;DHT22;32155;54.076;12.092;2023-06-26T04:22:18;20.00;99.90
46458;DHT22;32155;54.076;12.092;2023-06-26T04:24:46;20.00;99.90
46458;DHT22;32155;54.076;12.092;2023-06-26T04:27:12;20.00;99.90
46458;DHT22;32155;54.076;12.092;2023-06-26T04:29:39;20.10;99.90
46458;DHT22;32155;54.076;12.092;2023-06-26T04:32:04;20.10;99.90
46458;DHT22;32155;54.076;12.092;2023-06-26T04:34:30;20.20;99.90
46458;DHT22;32155;54.076;12.092;2023-06-26T04:37:01;20.30;99.90
46458;DHT22;32155;54.076;12.092;2023-06-26T04:39:29;20.30;99.90
46458;DHT22;32155;54.076;12.092;2023-06-26T04:41:55;20.30;99.90
46458;DHT22;32155;54.076;12.092;2023-06-26T04:44:23;20.50;99.90
46458;DHT22;32155;54.076;12.092;2023-06-26T04:46:49;20.50;99.90
46458;DHT22;32155;54.076;12.092;2023-06-26T04:49:19;20.60;99.90
46458;DHT22;32155;54.076;12.092;2023-06-26T04:51:45;20.70;99.90
46458;DHT22;32155;54.076;12.092;2023-06-26T04:54:10;20.90;99.90
46458;DHT22;32155;54.076;12.092;2023-06-26T04:56:38;21.00;99.90
46458;DHT22;32155;54.076;12.092;2023-06-26T04:59:12;21.00;99.90
46458;DHT22;32155;54.076;12.092;2023-06-26T05:01:38;21.10;99.90
46458;DHT22;32155;54.076;12.092;2023-06-26T05:04:06;21.30;99.90
46458;DHT22;32155;54.076;12.092;2023-06-26T05:06:34;21.40;99.90
46458;DHT22;32155;54.076;12.092;2023-06-26T05:09:00;21.40;99.90
46458;DHT22;32155;54.076;12.092;2023-06-26T05:11:27;21.50;99.90
46458;DHT22;32155;54.076;12.092;2023-06-26T05:13:53;21.50;99.90
46458;DHT22;32155;54.076;12.092;2023-06-26T05:16:18;21.60;99.90
46458;DHT22;32155;54.076;12.092;2023-06-26T05:18:44;21.70;99.90
46458;DHT22;32155;54.076;12.092;2023-06-26T05:21:09;21.90;99.90
46458;DHT22;32155;54.076;12.092;2023-06-26T05:23:37;22.00;99.90
46458;DHT22;32155;54.076;12.092;2023-06-26T05:26:03;22.10;99.90
46458;DHT22;32155;54.076;12.092;2023-06-26T05:28:29;22.20;99.90
46458;DHT22;32155;54.076;12.092;2023-06-26T05:30:56;22.30;99.90
46458;DHT22;32155;54.076;12.092;2023-06-26T05:33:23;22.40;99.90
46458;DHT22;32155;54.076;12.092;2023-06-26T05:35:52;22.50;99.90
46458;DHT22;32155;54.076;12.092;2023-06-26T05:38:18;22.60;99.90
46458;DHT22;32155;54.076;12.092;2023-06-26T05:40:43;22.80;99.90
46458;DHT22;32155;54.076;12.092;2023-06-26T05:43:09;22.90;99.90
46458;DHT22;32155;54.076;12.092;2023-06-26T05:45:35;23.00;99.90
46458;DHT22;32155;54.076;12.092;2023-06-26T05:48:00;23.10;99.90
46458;DHT22;32155;54.076;12.092;2023-06-26T05:50:26;23.30;99.90
46458;DHT22;32155;54.076;12.092;2023-06-26T05:52:52;23.40;99.90
46458;DHT22;32155;54.076;12.092;2023-06-26T05:55:20;23.60;99.90
46458;DHT22;32155;54.076;12.092;2023-06-26T05:57:46;24.00;99.90
46458;DHT22;32155;54.076;12.092;2023-06-26T06:00:12;24.40;99.90
46458;DHT22;32155;54.076;12.092;2023-06-26T06:02:38;24.70;99.90
46458;DHT22;32155;54.076;12.092;2023-06-26T06:05:04;25.00;99.90
46458;DHT22;32155;54.076;12.092;2023-06-26T06:07:31;25.20;99.90
46458;DHT22;32155;54.076;12.092;2023-06-26T06:09:56;25.40;99.90
46458;DHT22;32155;54.076;12.092;2023-06-26T06:12:22;25.50;99.90
46458;DHT22;32155;54.076;12.092;2023-06-26T06:14:51;25.50;99.90
46458;DHT22;32155;54.076;12.092;2023-06-26T06:17:16;25.50;99.90
46458;DHT22;32155;54.076;12.092;2023-06-26T06:19:45;25.70;99.90
46458;DHT22;32155;54.076;12.092;2023-06-26T06:22:10;25.70;99.90
46458;DHT22;32155;54.076;12.092;2023-06-26T06:24:36;25.90;99.90
46458;DHT22;32155;54.076;12.092;2023-06-26T06:27:01;26.10;99.90
46458;DHT22;32155;54.076;12.092;2023-06-26T06:29:27;26.20;99.90
46458;DHT22;32155;54.076;12.092;2023-06-26T06:31:52;26.30;99.90
46458;DHT22;32155;54.076;12.092;2023-06-26T06:34:18;26.30;99.90
46458;DHT22;32155;54.076;12.092;2023-06-26T06:36:43;26.40;99.90
46458;DHT22;32155;54.076;12.092;2023-06-26T06:39:09;26.80;99.90
46458;DHT22;32155;54.076;12.092;2023-06-26T06:41:37;27.10;99.90
46458;DHT22;32155;54.076;12.092;2023-06-26T06:44:10;27.50;99.90
46458;DHT22;32155;54.076;12.092;2023-06-26T06:46:35;28.00;99.90
46458;DHT22;32155;54.076;12.092;2023-06-26T06:49:03;28.20;99.90
46458;DHT22;32155;54.076;12.092;2023-06-26T06:51:29;28.00;99.90
46458;DHT22;32155;54.076;12.092;2023-06-26T06:53:55;28.30;99.90
46458;DHT22;32155;54.076;12.092;2023-06-26T06:56:20;28.50;99.90
46458;DHT22;32155;54.076;12.092;2023-06-26T06:58:46;28.80;99.90
46458;DHT22;32155;54.076;12.092;2023-06-26T07:01:12;28.60;99.90
46458;DHT22;32155;54.076;12.092;2023-06-26T07:03:38;28.60;99.90
46458;DHT22;32155;54.076;12.092;2023-06-26T07:06:07;28.80;99.90
46458;DHT22;32155;54.076;12.092;2023-06-26T07:08:33;29.00;99.90
46458;DHT22;32155;54.076;12.092;2023-06-26T07:10:58;29.50;99.90
46458;DHT22;32155;54.076;12.092;2023-06-26T07:13:24;29.90;99.90
46458;DHT22;32155;54.076;12.092;2023-06-26T07:15:49;29.80;99.90
46458;DHT22;32155;54.076;12.092;2023-06-26T07:18:15;29.70;99.90
46458;DHT22;32155;54.076;12.092;2023-06-26T07:20:41;29.80;99.90
46458;DHT22;32155;54.076;12.092;2023-06-26T07:23:07;29.80;99.90
46458;DHT22;32155;54.076;12.092;2023-06-26T07:25:32;30.20;99.90
46458;DHT22;32155;54.076;12.092;2023-06-26T07:27:58;30.10;99.90
46458;DHT22;32155;54.076;12.092;2023-06-26T07:30:23;30.40;99.90
46458;DHT22;32155;54.076;12.092;2023-06-26T07:32:49;30.60;99.90
46458;DHT22;32155;54.076;12.092;2023-06-26T07:35:15;30.80;99.90
46458;DHT22;32155;54.076;12.092;2023-06-26T07:37:41;30.60;99.90
46458;DHT22;32155;54.076;12.092;2023-06-26T07:40:06;30.80;99.90
46458;DHT22;32155;54.076;12.092;2023-06-26T07:42:34;31.00;99.90
46458;DHT22;32155;54.076;12.092;2023-06-26T07:44:59;30.50;99.90
46458;DHT22;32155;54.076;12.092;2023-06-26T07:47:25;31.20;99.90
46458;DHT22;32155;54.076;12.092;2023-06-26T07:49:51;31.90;99.90
46458;DHT22;32155;54.076;12.092;2023-06-26T07:52:17;32.40;99.90
46458;DHT22;32155;54.076;12.092;2023-06-26T07:54:46;32.90;99.90
46458;DHT22;32155;54.076;12.092;2023-06-26T07:57:11;32.80;99.90
46458;DHT22;32155;54.076;12.092;2023-06-26T07:59:38;33.20;99.90
46458;DHT22;32155;54.076;12.092;2023-06-26T08:02:05;33.50;99.90
46458;DHT22;32155;54.076;12.092;2023-06-26T08:04:31;33.20;99.90
46458;DHT22;32155;54.076;12.092;2023-06-26T08:07:00;33.50;99.90
46458;DHT22;32155;54.076;12.092;2023-06-26T08:09:26;34.20;99.90
46458;DHT22;32155;54.076;12.092;2023-06-26T08:11:52;34.00;99.90
46458;DHT22;32155;54.076;12.092;2023-06-26T08:14:17;33.30;99.90
46458;DHT22;32155;54.076;12.092;2023-06-26T08:16:43;33.10;99.90
46458;DHT22;32155;54.076;12.092;2023-06-26T08:19:11;34.00;99.90
46458;DHT22;32155;54.076;12.092;2023-06-26T08:21:39;35.00;99.90
46458;DHT22;32155;54.076;12.092;2023-06-26T08:24:05;34.80;99.90
46458;DHT22;32155;54.076;12.092;2023-06-26T08:26:30;34.20;99.90
46458;DHT22;32155;54.076;12.092;2023-06-26T08:28:56;33.30;99.90
46458;DHT22;32155;54.076;12.092;2023-06-26T08:31:21;33.60;99.90
46458;DHT22;32155;54.076;12.092;2023-06-26T08:33:47;34.20;99.90
46458;DHT22;32155;54.076;12.092;2023-06-26T08:36:14;34.40;99.90
46458;DHT22;32155;54.076;12.092;2023-06-26T08:38:40;35.80;99.80
46458;DHT22;32155;54.076;12.092;2023-06-26T08:41:09;35.30;99.10
46458;DHT22;32155;54.076;12.092;2023-06-26T08:43:35;35.20;97.70
46458;DHT22;32155;54.076;12.092;2023-06-26T08:46:00;35.00;98.10
46458;DHT22;32155;54.076;12.092;2023-06-26T08:48:34;35.10;96.90
46458;DHT22;32155;54.076;12.092;2023-06-26T08:51:04;35.00;96.70
46458;DHT22;32155;54.076;12.092;2023-06-26T08:56:02;35.70;96.70
46458;DHT22;32155;54.076;12.092;2023-06-26T08:58:28;36.00;95.40
46458;DHT22;32155;54.076;12.092;2023-06-26T09:00:54;36.80;94.80
46458;DHT22;32155;54.076;12.092;2023-06-26T09:03:21;37.60;94.30
46458;DHT22;32155;54.076;12.092;2023-06-26T09:05:46;38.30;92.30
46458;DHT22;32155;54.076;12.092;2023-06-26T09:08:12;37.60;91.70
46458;DHT22;32155;54.076;12.092;2023-06-26T09:10:40;37.10;91.80
46458;DHT22;32155;54.076;12.092;2023-06-26T09:13:06;36.80;90.80
46458;DHT22;32155;54.076;12.092;2023-06-26T09:15:44;36.50;90.70
46458;DHT22;32155;54.076;12.092;2023-06-26T09:18:09;36.60;91.10
46458;DHT22;32155;54.076;12.092;2023-06-26T09:20:35;36.50;90.40
46458;DHT22;32155;54.076;12.092;2023-06-26T09:23:00;36.90;90.30
46458;DHT22;32155;54.076;12.092;2023-06-26T09:25:26;37.50;89.80
46458;DHT22;32155;54.076;12.092;2023-06-26T09:27:52;38.10;87.20
46458;DHT22;32155;54.076;12.092;2023-06-26T09:30:18;37.60;86.60
46458;DHT22;32155;54.076;12.092;2023-06-26T09:32:46;38.00;86.50
46458;DHT22;32155;54.076;12.092;2023-06-26T09:35:16;37.50;84.60
46458;DHT22;32155;54.076;12.092;2023-06-26T09:37:42;37.50;86.60
46458;DHT22;32155;54.076;12.092;2023-06-26T09:40:10;39.20;83.70
46458;DHT22;32155;54.076;12.092;2023-06-26T09:42:36;39.30;81.60
46458;DHT22;32155;54.076;12.092;2023-06-26T09:45:01;37.30;82.50
46458;DHT22;32155;54.076;12.092;2023-06-26T09:47:29;37.30;85.30
46458;DHT22;32155;54.076;12.092;2023-06-26T09:49:55;37.80;83.70
46458;DHT22;32155;54.076;12.092;2023-06-26T09:52:20;38.70;80.70
46458;DHT22;32155;54.076;12.092;2023-06-26T09:54:46;38.00;80.70
46458;DHT22;32155;54.076;12.092;2023-06-26T09:57:13;37.20;81.30
46458;DHT22;32155;54.076;12.092;2023-06-26T09:59:39;37.90;81.20
46458;DHT22;32155;54.076;12.092;2023-06-26T10:02:07;38.70;78.30
46458;DHT22;32155;54.076;12.092;2023-06-26T10:04:33;37.50;79.20
46458;DHT22;32155;54.076;12.092;2023-06-26T10:07:02;37.40;80.10
46458;DHT22;32155;54.076;12.092;2023-06-26T10:09:32;38.30;79.70
46458;DHT22;32155;54.076;12.092;2023-06-26T10:12:06;38.40;79.10
46458;DHT22;32155;54.076;12.092;2023-06-26T10:14:36;38.90;77.30
46458;DHT22;32155;54.076;12.092;2023-06-26T10:17:09;38.40;78.00
46458;DHT22;32155;54.076;12.092;2023-06-26T10:19:35;39.40;76.60
46458;DHT22;32155;54.076;12.092;2023-06-26T10:22:03;39.10;75.60
46458;DHT22;32155;54.076;12.092;2023-06-26T10:24:29;39.10;75.20
46458;DHT22;32155;54.076;12.092;2023-06-26T10:26:59;38.50;77.80
46458;DHT22;32155;54.076;12.092;2023-06-26T10:29:27;39.70;74.20
46458;DHT22;32155;54.076;12.092;2023-06-26T10:31:54;38.40;74.40
46458;DHT22;32155;54.076;12.092;2023-06-26T10:34:21;38.20;76.00
46458;DHT22;32155;54.076;12.092;2023-06-26T10:36:46;38.40;74.70
46458;DHT22;32155;54.076;12.092;2023-06-26T10:39:13;38.10;74.00
46458;DHT22;32155;54.076;12.092;2023-06-26T10:41:42;38.00;74.90
46458;DHT22;32155;54.076;12.092;2023-06-26T10:44:10;38.40;75.60
46458;DHT22;32155;54.076;12.092;2023-06-26T10:46:49;39.50;72.60
46458;DHT22;32155;54.076;12.092;2023-06-26T10:49:15;38.90;73.00
46458;DHT22;32155;54.076;12.092;2023-06-26T10:51:46;38.40;72.80
46458;DHT22;32155;54.076;12.092;2023-06-26T10:54:13;37.90;74.00
46458;DHT22;32155;54.076;12.092;2023-06-26T10:56:46;38.00;75.00
46458;DHT22;32155;54.076;12.092;2023-06-26T11:01:44;39.00;73.10
46458;DHT22;32155;54.076;12.092;2023-06-26T11:04:11;38.70;73.60
46458;DHT22;32155;54.076;12.092;2023-06-26T11:06:37;38.60;73.20
46458;DHT22;32155;54.076;12.092;2023-06-26T11:09:10;38.10;73.30
46458;DHT22;32155;54.076;12.092;2023-06-26T11:14:16;38.00;72.80
46458;DHT22;32155;54.076;12.092;2023-06-26T11:16:45;37.60;74.10
46458;DHT22;32155;54.076;12.092;2023-06-26T11:19:11;38.20;73.20
46458;DHT22;32155;54.076;12.092;2023-06-26T11:21:39;39.70;71.20
46458;DHT22;32155;54.076;12.092;2023-06-26T11:24:08;39.90;68.80
46458;DHT22;32155;54.076;12.092;2023-06-26T11:26:52;38.00;72.10
46458;DHT22;32155;54.076;12.092;2023-06-26T11:29:18;37.60;73.60
46458;DHT22;32155;54.076;12.092;2023-06-26T11:31:46;37.90;74.20
46458;DHT22;32155;54.076;12.092;2023-06-26T11:34:12;38.40;72.60
46458;DHT22;32155;54.076;12.092;2023-06-26T11:36:38;37.40;73.30
46458;DHT22;32155;54.076;12.092;2023-06-26T11:39:04;36.60;73.70
46458;DHT22;32155;54.076;12.092;2023-06-26T11:41:34;35.50;75.70
46458;DHT22;32155;54.076;12.092;2023-06-26T11:44:09;34.50;77.60
46458;DHT22;32155;54.076;12.092;2023-06-26T11:46:35;33.40;79.90
46458;DHT22;32155;54.076;12.092;2023-06-26T11:49:05;32.40;82.00
46458;DHT22;32155;54.076;12.092;2023-06-26T11:51:30;31.90;83.90
46458;DHT22;32155;54.076;12.092;2023-06-26T11:53:56;31.40;85.20
46458;DHT22;32155;54.076;12.092;2023-06-26T11:56:21;31.00;86.30
46458;DHT22;32155;54.076;12.092;2023-06-26T11:59:01;30.60;87.30
46458;DHT22;32155;54.076;12.092;2023-06-26T12:01:41;30.60;88.60
46458;DHT22;32155;54.076;12.092;2023-06-26T12:04:10;30.20;89.30
46458;DHT22;32155;54.076;12.092;2023-06-26T12:06:36;30.10;90.20
46458;DHT22;32155;54.076;12.092;2023-06-26T12:09:05;29.30;95.40
46458;DHT22;32155;54.076;12.092;2023-06-26T12:11:35;28.20;99.90
46458;DHT22;32155;54.076;12.092;2023-06-26T12:14:01;26.70;99.90
46458;DHT22;32155;54.076;12.092;2023-06-26T12:16:28;26.10;99.90
46458;DHT22;32155;54.076;12.092;2023-06-26T12:18:58;25.80;99.90
46458;DHT22;32155;54.076;12.092;2023-06-26T12:24:03;25.30;99.90
46458;DHT22;32155;54.076;12.092;2023-06-26T12:26:29;24.90;99.90
46458;DHT22;32155;54.076;12.092;2023-06-26T12:29:02;24.60;99.90
46458;DHT22;32155;54.076;12.092;2023-06-26T12:31:28;24.50;99.90
46458;DHT22;32155;54.076;12.092;2023-06-26T12:33:53;24.60;99.90
46458;DHT22;32155;54.076;12.092;2023-06-26T12:36:19;24.70;99.90
46458;DHT22;32155;54.076;12.092;2023-06-26T12:38:45;24.60;99.90
46458;DHT22;32155;54.076;12.092;2023-06-26T12:41:14;24.60;99.90
46458;DHT22;32155;54.076;12.092;2023-06-26T12:43:42;24.70;99.90
46458;DHT22;32155;54.076;12.092;2023-06-26T12:46:08;25.00;99.90
46458;DHT22;32155;54.076;12.092;2023-06-26T12:48:43;24.80;99.90
46458;DHT22;32155;54.076;12.092;2023-06-26T12:51:11;25.00;99.90
46458;DHT22;32155;54.076;12.092;2023-06-26T12:53:37;25.00;99.90
46458;DHT22;32155;54.076;12.092;2023-06-26T12:56:05;24.80;99.90
46458;DHT22;32155;54.076;12.092;2023-06-26T12:58:30;25.00;99.90
46458;DHT22;32155;54.076;12.092;2023-06-26T13:00:56;25.10;99.90
46458;DHT22;32155;54.076;12.092;2023-06-26T13:03:22;25.10;99.90
46458;DHT22;32155;54.076;12.092;2023-06-26T13:05:50;25.10;99.90
46458;DHT22;32155;54.076;12.092;2023-06-26T13:08:16;25.00;99.90
46458;DHT22;32155;54.076;12.092;2023-06-26T13:10:43;24.70;99.90
46458;DHT22;32155;54.076;12.092;2023-06-26T13:13:12;24.60;99.90
46458;DHT22;32155;54.076;12.092;2023-06-26T13:15:37;24.30;99.90
46458;DHT22;32155;54.076;12.092;2023-06-26T13:18:05;24.30;99.90
46458;DHT22;32155;54.076;12.092;2023-06-26T13:20:31;24.30;99.90
46458;DHT22;32155;54.076;12.092;2023-06-26T13:22:56;24.30;99.90
46458;DHT22;32155;54.076;12.092;2023-06-26T13:25:22;24.30;99.90
46458;DHT22;32155;54.076;12.092;2023-06-26T13:27:48;24.40;99.90
46458;DHT22;32155;54.076;12.092;2023-06-26T13:30:14;24.30;99.90
46458;DHT22;32155;54.076;12.092;2023-06-26T13:32:40;24.30;99.90
46458;DHT22;32155;54.076;12.092;2023-06-26T13:35:06;24.40;99.90
46458;DHT22;32155;54.076;12.092;2023-06-26T13:37:32;24.50;99.90
46458;DHT22;32155;54.076;12.092;2023-06-26T13:39:59;24.50;99.90
46458;DHT22;32155;54.076;12.092;2023-06-26T13:42:25;24.40;99.90
46458;DHT22;32155;54.076;12.092;2023-06-26T13:44:50;24.10;99.90
46458;DHT22;32155;54.076;12.092;2023-06-26T13:47:16;23.90;99.90
46458;DHT22;32155;54.076;12.092;2023-06-26T13:49:41;23.90;99.90
46458;DHT22;32155;54.076;12.092;2023-06-26T13:52:07;24.10;99.90
46458;DHT22;32155;54.076;12.092;2023-06-26T13:54:36;24.20;99.90
46458;DHT22;32155;54.076;12.092;2023-06-26T13:57:04;24.40;99.90
46458;DHT22;32155;54.076;12.092;2023-06-26T13:59:30;24.50;99.90
46458;DHT22;32155;54.076;12.092;2023-06-26T14:01:56;24.70;99.90
46458;DHT22;32155;54.076;12.092;2023-06-26T14:04:22;25.00;99.90
46458;DHT22;32155;54.076;12.092;2023-06-26T14:06:47;25.40;99.90
46458;DHT22;32155;54.076;12.092;2023-06-26T14:09:13;26.10;99.90
46458;DHT22;32155;54.076;12.092;2023-06-26T14:11:38;26.70;99.90
46458;DHT22;32155;54.076;12.092;2023-06-26T14:14:06;27.10;99.90
46458;DHT22;32155;54.076;12.092;2023-06-26T14:16:32;27.10;99.90
46458;DHT22;32155;54.076;12.092;2023-06-26T14:18:58;27.20;99.90
46458;DHT22;32155;54.076;12.092;2023-06-26T14:21:27;27.00;99.90
46458;DHT22;32155;54.076;12.092;2023-06-26T14:23:53;26.20;99.90
46458;DHT22;32155;54.076;12.092;2023-06-26T14:26:18;25.50;99.90
46458;DHT22;32155;54.076;12.092;2023-06-26T14:28:44;25.10;99.90
46458;DHT22;32155;54.076;12.092;2023-06-26T14:31:10;24.70;99.90
46458;DHT22;32155;54.076;12.092;2023-06-26T14:33:35;24.60;99.90
46458;DHT22;32155;54.076;12.092;2023-06-26T14:36:02;24.30;99.90
46458;DHT22;32155;54.076;12.092;2023-06-26T14:38:28;24.00;99.90
46458;DHT22;32155;54.076;12.092;2023-06-26T14:40:53;23.90;99.90
46458;DHT22;32155;54.076;12.092;2023-06-26T14:43:19;23.70;99.90
46458;DHT22;32155;54.076;12.092;2023-06-26T14:45:44;23.70;99.90
46458;DHT22;32155;54.076;12.092;2023-06-26T14:48:12;23.70;99.90
46458;DHT22;32155;54.076;12.092;2023-06-26T14:50:38;24.10;99.90
46458;DHT22;32155;54.076;12.092;2023-06-26T14:53:03;24.80;99.90
46458;DHT22;32155;54.076;12.092;2023-06-26T14:55:29;25.10;99.90
46458;DHT22;32155;54.076;12.092;2023-06-26T14:57:55;25.20;99.90
46458;DHT22;32155;54.076;12.092;2023-06-26T15:00:22;25.40;99.90
46458;DHT22;32155;54.076;12.092;2023-06-26T15:02:52;25.70;99.90
46458;DHT22;32155;54.076;12.092;2023-06-26T15:05:21;26.50;99.90
46458;DHT22;32155;54.076;12.092;2023-06-26T15:07:47;26.30;99.90
46458;DHT22;32155;54.076;12.092;2023-06-26T15:10:13;26.20;99.90
46458;DHT22;32155;54.076;12.092;2023-06-26T15:12:38;25.90;99.90
46458;DHT22;32155;54.076;12.092;2023-06-26T15:15:04;25.50;99.90
46458;DHT22;32155;54.076;12.092;2023-06-26T15:17:29;25.10;99.90
46458;DHT22;32155;54.076;12.092;2023-06-26T15:19:57;25.10;99.90
46458;DHT22;32155;54.076;12.092;2023-06-26T15:22:23;25.10;99.90
46458;DHT22;32155;54.076;12.092;2023-06-26T15:24:50;25.00;99.90
46458;DHT22;32155;54.076;12.092;2023-06-26T15:27:16;24.90;99.90
46458;DHT22;32155;54.076;12.092;2023-06-26T15:29:42;25.00;99.90